Time;durP1;ratioP1;P1;durP2;ratioP2;P2;SDS_P1;SDS_P2;PMS_P1;PMS_P2;Temp;Humidity;BMP_temperature;BMP_pressure;BME280_temperature;BME280_humidity;BME280_pressure;Samples;Min_cycle;Max_cycle;Signal;HPM_P1;HPM_P2
2022/11/15 00:02:21;;;;;;;21.90;15.20;;;12.50;60.60;;;;;;5104871;28;20439;-90
2022/11/15 00:05:08;;;;;;;20.70;14.07;;;12.50;60.50;;;;;;5090654;28;20962;-91
2022/11/15 00:07:56;;;;;;;21.00;13.90;;;12.60;60.50;;;;;;5091675;28;21213;-88
2022/11/15 00:10:44;;;;;;;21.13;15.07;;;12.60;60.50;;;;;;5091825;28;20523;-92
2022/11/15 00:13:31;;;;;;;29.27;17.90;;;12.50;60.30;;;;;;5093059;28;20435;-89
2022/11/15 00:16:17;;;;;;;26.67;15.57;;;12.50;60.20;;;;;;5091911;28;20862;-88
2022/11/15 00:19:03;;;;;;;24.90;15.90;;;12.40;61.30;;;;;;5088384;28;20448;-90
2022/11/15 00:21:50;;;;;;;24.83;16.13;;;12.40;61.30;;;;;;5107854;28;20577;-89
2022/11/15 00:24:36;;;;;;;23.80;15.43;;;12.40;60.80;;;;;;5084615;28;20450;-90
2022/11/15 00:27:23;;;;;;;24.57;15.20;;;12.50;60.50;;;;;;5109756;28;20443;-90
2022/11/15 00:30:09;;;;;;;24.73;14.47;;;12.50;60.20;;;;;;5083879;28;20443;-89
2022/11/15 00:32:55;;;;;;;22.87;14.70;;;12.50;60.10;;;;;;5073041;28;20435;-91
2022/11/15 00:35:41;;;;;;;22.20;16.07;;;12.40;60.30;;;;;;5086055;28;20473;-88
2022/11/15 00:38:31;;;;;;;25.93;15.10;;;12.40;60.00;;;;;;5067748;28;20446;-88
2022/11/15 00:41:16;;;;;;;21.33;14.77;;;12.30;60.80;;;;;;5075849;28;20439;-88
2022/11/15 00:44:03;;;;;;;23.60;15.40;;;12.40;60.90;;;;;;5088987;28;20460;-90
2022/11/15 00:46:49;;;;;;;23.33;15.80;;;12.40;60.60;;;;;;5091508;28;20454;-89
2022/11/15 00:49:35;;;;;;;22.93;15.57;;;12.40;61.10;;;;;;5092044;28;20434;-90
2022/11/15 00:52:20;;;;;;;19.93;14.23;;;12.30;60.70;;;;;;5105172;28;20446;-90
2022/11/15 00:55:06;;;;;;;24.80;14.53;;;12.40;60.70;;;;;;5067069;28;20836;-89
2022/11/15 00:57:52;;;;;;;21.87;14.73;;;12.40;60.10;;;;;;5071461;28;21218;-89
2022/11/15 01:00:40;;;;;;;22.27;14.97;;;12.40;59.70;;;;;;5086297;28;20432;-89
2022/11/15 01:03:26;;;;;;;23.77;16.50;;;12.20;59.80;;;;;;5073126;28;20481;-89
2022/11/15 01:06:12;;;;;;;20.07;15.00;;;12.10;60.50;;;;;;5074992;28;20823;-90
2022/11/15 01:08:58;;;;;;;22.43;15.20;;;12.20;61.10;;;;;;5090620;28;20435;-89
2022/11/15 01:11:46;;;;;;;25.60;16.60;;;12.20;60.70;;;;;;5085373;28;20507;-88
2022/11/15 01:14:32;;;;;;;24.80;15.60;;;12.00;61.30;;;;;;5106282;28;20810;-89
2022/11/15 01:17:19;;;;;;;19.53;13.93;;;12.10;61.50;;;;;;5109680;28;20440;-91
2022/11/15 01:20:05;;;;;;;24.43;16.33;;;12.10;60.70;;;;;;5087866;28;20473;-90
2022/11/15 01:22:51;;;;;;;27.13;14.40;;;12.20;60.30;;;;;;5081071;28;20564;-90
2022/11/15 01:25:38;;;;;;;23.90;14.47;;;12.20;60.20;;;;;;5086767;28;20451;-89
2022/11/15 01:28:24;;;;;;;19.93;14.83;;;12.20;60.00;;;;;;5072169;28;20431;-89
2022/11/15 01:31:14;;;;;;;24.73;16.20;;;12.10;60.00;;;;;;5067666;28;20776;-90
2022/11/15 01:34:02;;;;;;;26.23;16.77;;;12.00;60.50;;;;;;5088334;28;21111;-91
2022/11/15 01:36:48;;;;;;;22.00;15.03;;;11.80;61.90;;;;;;5072337;28;20431;-88
2022/11/15 01:39:34;;;;;;;21.27;15.10;;;11.30;63.90;;;;;;5084825;28;20512;-91
2022/11/15 01:42:23;;;;;;;22.97;15.90;;;11.60;63.30;;;;;;5089651;28;20473;-91
2022/11/15 01:45:14;;;;;;;24.67;14.73;;;11.80;62.70;;;;;;5069944;28;20469;-89
2022/11/15 01:48:00;;;;;;;16.73;13.00;;;11.90;62.20;;;;;;5072498;28;20443;-88
2022/11/15 01:50:49;;;;;;;19.40;12.80;;;12.00;61.50;;;;;;5074483;28;20435;-89
2022/11/15 01:53:38;;;;;;;23.53;14.60;;;12.00;61.00;;;;;;5075785;28;21220;-90
2022/11/15 01:56:28;;;;;;;25.43;15.30;;;12.00;61.70;;;;;;5086380;28;20595;-90
2022/11/15 01:59:14;;;;;;;25.30;16.17;;;12.00;61.60;;;;;;5074477;28;20431;-91
2022/11/15 02:02:02;;;;;;;24.77;15.13;;;12.00;61.90;;;;;;5086599;28;20541;-90
2022/11/15 02:04:48;;;;;;;23.60;14.47;;;12.10;61.70;;;;;;5067764;28;20458;-90
2022/11/15 02:07:37;;;;;;;20.33;13.23;;;11.80;62.30;;;;;;5087275;28;20447;-90
2022/11/15 02:10:24;;;;;;;20.13;14.20;;;11.70;62.80;;;;;;5066388;28;20527;-89
2022/11/15 02:13:10;;;;;;;21.90;15.07;;;11.80;62.80;;;;;;5070705;28;20439;-91
2022/11/15 02:16:04;;;;;;;18.67;13.00;;;11.80;62.60;;;;;;5089572;28;20977;-90
2022/11/15 02:18:56;;;;;;;21.37;14.30;;;12.00;61.80;;;;;;5071220;28;20447;-92
2022/11/15 02:21:50;;;;;;;19.53;13.50;;;12.00;61.40;;;;;;5064889;28;21023;-88
2022/11/15 02:24:58;;;;;;;19.20;14.43;;;12.00;61.70;;;;;;5072307;28;20451;-89
2022/11/15 02:28:08;;;;;;;17.97;13.30;;;12.00;61.20;;;;;;5072164;28;20525;-90
2022/11/15 02:31:05;;;;;;;18.87;14.10;;;12.10;60.70;;;;;;5070055;28;20446;-89
2022/11/15 02:34:00;;;;;;;16.60;12.73;;;12.10;60.50;;;;;;5090034;28;20473;-89
2022/11/15 02:36:56;;;;;;;20.13;13.00;;;12.10;60.10;;;;;;5072767;28;20507;-91
2022/11/15 02:39:51;;;;;;;25.10;15.40;;;12.10;59.80;;;;;;5089482;28;20922;-89
2022/11/15 02:45:52;;;;;;;20.40;13.83;;;11.70;61.70;;;;;;5089146;28;20431;-90
2022/11/15 02:48:43;;;;;;;19.47;12.67;;;11.70;60.90;;;;;;5088786;28;20786;-89
2022/11/15 02:51:31;;;;;;;19.53;14.07;;;11.80;60.50;;;;;;5069319;28;20443;-89
2022/11/15 02:54:23;;;;;;;20.70;13.63;;;11.90;60.20;;;;;;5067763;28;20456;-89
2022/11/15 02:57:17;;;;;;;20.80;13.17;;;11.90;59.80;;;;;;5084926;28;20554;-88
2022/11/15 03:00:10;;;;;;;18.10;12.67;;;11.80;59.60;;;;;;5086153;28;20434;-88
2022/11/15 03:03:18;;;;;;;20.57;13.97;;;11.40;61.10;;;;;;5072315;28;20451;-89
2022/11/15 03:06:16;;;;;;;20.27;13.43;;;11.60;61.00;;;;;;5101569;28;20818;-89
2022/11/15 03:09:08;;;;;;;19.90;13.10;;;11.50;59.80;;;;;;5065456;28;20498;-90
2022/11/15 03:12:06;;;;;;;17.20;11.83;;;11.10;61.80;;;;;;5103100;28;20447;-90
2022/11/15 03:14:56;;;;;;;18.50;12.60;;;11.10;62.60;;;;;;5086024;28;20830;-89
2022/11/15 03:17:47;;;;;;;21.23;12.67;;;11.20;61.30;;;;;;5083412;28;20498;-89
2022/11/15 03:20:37;;;;;;;16.17;12.40;;;11.30;60.50;;;;;;5086069;28;20450;-89
2022/11/15 03:23:35;;;;;;;18.20;11.43;;;11.30;60.20;;;;;;5077325;28;20437;-89
2022/11/15 03:26:26;;;;;;;16.80;11.10;;;11.00;61.30;;;;;;5064084;28;20520;-89
2022/11/15 03:29:18;;;;;;;17.60;10.17;;;10.90;61.30;;;;;;5079125;28;20492;-89
2022/11/15 03:32:08;;;;;;;16.63;12.20;;;11.00;61.40;;;;;;5074430;28;20459;-89
2022/11/15 03:35:03;;;;;;;22.30;12.63;;;11.10;61.60;;;;;;5073936;28;20463;-90
2022/11/15 03:37:53;;;;;;;19.90;10.30;;;11.20;61.70;;;;;;5076891;28;20946;-90
2022/11/15 03:40:46;;;;;;;14.50;9.83;;;11.20;61.30;;;;;;5087928;28;20467;-90
2022/11/15 03:43:40;;;;;;;14.27;10.10;;;11.30;60.90;;;;;;5073963;28;20439;-90
2022/11/15 03:46:33;;;;;;;13.47;9.27;;;11.40;60.90;;;;;;5076569;28;20525;-88
2022/11/15 03:49:28;;;;;;;19.23;11.00;;;11.40;60.30;;;;;;5085618;28;20441;-89
2022/11/15 03:52:18;;;;;;;18.90;10.30;;;11.50;60.90;;;;;;5091492;28;20431;-91
2022/11/15 03:55:08;;;;;;;13.20;10.17;;;11.50;61.00;;;;;;5074691;28;20470;-90
2022/11/15 03:57:58;;;;;;;20.20;11.10;;;11.60;60.40;;;;;;5093906;28;20435;-90
2022/11/15 04:00:44;;;;;;;14.87;10.90;;;11.70;60.00;;;;;;5075130;28;20436;-88
2022/11/15 04:03:30;;;;;;;17.73;11.23;;;11.70;59.70;;;;;;5086293;28;20526;-90
2022/11/15 04:06:15;;;;;;;13.03;10.17;;;11.70;59.50;;;;;;5087694;28;20919;-89
2022/11/15 04:09:01;;;;;;;16.03;10.60;;;11.70;59.40;;;;;;5091522;28;20472;-90
2022/11/15 04:11:46;;;;;;;12.83;10.23;;;11.70;59.30;;;;;;5108094;28;20435;-90
2022/11/15 04:14:33;;;;;;;14.37;11.37;;;11.70;59.20;;;;;;5075870;28;20463;-94
2022/11/15 04:17:19;;;;;;;21.50;12.10;;;11.60;59.20;;;;;;5107340;28;20977;-89
2022/11/15 04:26:17;;;;;;;54.10;15.87;;;11.60;60.40;;;;;;5073423;28;20446;-92
2022/11/15 04:32:08;;;;;;;88.77;27.03;;;10.80;63.50;;;;;;5107264;28;20443;-89
2022/11/15 04:34:53;;;;;;;97.23;22.93;;;10.80;63.50;;;;;;5074725;28;21041;-92
2022/11/15 04:37:39;;;;;;;58.33;18.87;;;11.00;62.50;;;;;;5076482;28;20427;-88
2022/11/15 04:40:25;;;;;;;50.27;21.40;;;11.00;62.40;;;;;;5077344;28;21015;-90
2022/11/15 04:43:11;;;;;;;181.20;26.43;;;11.10;62.60;;;;;;5092036;28;20451;-89
2022/11/15 04:45:56;;;;;;;180.83;21.03;;;11.00;61.90;;;;;;5087722;28;20438;-89
2022/11/15 04:48:43;;;;;;;123.97;19.13;;;10.90;62.40;;;;;;5089280;28;20443;-90
2022/11/15 04:51:29;;;;;;;141.33;16.87;;;10.70;62.80;;;;;;5109452;28;20435;-93
2022/11/15 04:54:14;;;;;;;32.13;13.67;;;10.30;64.10;;;;;;5104656;28;20474;-90
2022/11/15 04:56:59;;;;;;;38.63;13.73;;;10.50;63.90;;;;;;5103149;28;20992;-89
2022/11/15 04:59:45;;;;;;;56.90;15.17;;;10.50;62.90;;;;;;5107884;28;20587;-89
2022/11/15 05:04:18;;;;;;;21.23;12.00;;;10.40;62.60;;;;;;5108503;28;20961;-90
2022/11/15 05:05:37;;;;;;;23.63;12.50;;;10.40;63.10;;;;;;5085820;28;20990;-88
2022/11/15 05:08:23;;;;;;;19.97;13.00;;;10.50;62.30;;;;;;5085533;28;20439;-92
2022/11/15 05:11:09;;;;;;;18.53;12.20;;;10.40;62.20;;;;;;5087493;28;20450;-92
2022/11/15 05:13:54;;;;;;;20.57;12.03;;;10.20;63.40;;;;;;5088904;28;20474;-89
2022/11/15 05:16:40;;;;;;;17.03;11.97;;;10.40;63.20;;;;;;5089350;28;20459;-89
2022/11/15 05:19:26;;;;;;;17.57;12.87;;;10.70;61.70;;;;;;5092746;28;20446;-89
2022/11/15 05:22:13;;;;;;;18.13;12.60;;;10.80;60.90;;;;;;5069698;28;20443;-89
2022/11/15 05:24:58;;;;;;;19.90;13.23;;;10.90;61.10;;;;;;5068289;28;21016;-88
2022/11/15 05:27:48;;;;;;;36.67;15.50;;;11.00;59.80;;;;;;5071353;28;20431;-92
2022/11/15 05:30:33;;;;;;;23.40;14.33;;;10.90;60.50;;;;;;5083708;28;20850;-89
2022/11/15 05:33:19;;;;;;;23.60;12.80;;;10.80;61.70;;;;;;5072143;28;20433;-89
2022/11/15 05:36:10;;;;;;;32.70;13.37;;;10.90;61.40;;;;;;5088122;28;20500;-89
2022/11/15 05:38:57;;;;;;;115.07;17.67;;;10.90;61.50;;;;;;5102503;28;20458;-89
2022/11/15 05:41:46;;;;;;;101.50;17.00;;;10.80;61.90;;;;;;5088432;28;20447;-88
2022/11/15 05:44:33;;;;;;;70.97;14.70;;;10.50;62.80;;;;;;5084572;28;20466;-89
2022/11/15 05:47:22;;;;;;;42.20;15.43;;;10.70;62.70;;;;;;5100347;28;20455;-88
2022/11/15 05:50:08;;;;;;;26.90;14.63;;;10.80;62.00;;;;;;5097541;28;20481;-88
2022/11/15 05:52:56;;;;;;;52.33;17.63;;;10.90;61.70;;;;;;5100677;28;20438;-89
2022/11/15 05:55:43;;;;;;;55.43;21.53;;;11.00;61.50;;;;;;5097531;28;20974;-89
2022/11/15 05:58:29;;;;;;;94.13;18.73;;;11.10;61.10;;;;;;5084805;28;20629;-89
2022/11/15 06:01:15;;;;;;;136.87;21.60;;;11.10;60.60;;;;;;5073097;28;20787;-88
2022/11/15 06:04:00;;;;;;;63.17;17.90;;;10.60;61.70;;;;;;5076528;28;20459;-88
2022/11/15 06:06:46;;;;;;;57.77;16.83;;;10.40;63.30;;;;;;5087093;28;20442;-88
2022/11/15 06:09:32;;;;;;;57.53;16.13;;;10.50;63.20;;;;;;5088698;28;20447;-90
2022/11/15 06:12:18;;;;;;;77.07;17.33;;;10.70;62.30;;;;;;5088023;28;20585;-87
2022/11/15 06:15:05;;;;;;;53.77;16.07;;;10.90;61.60;;;;;;5085488;28;20476;-89
2022/11/15 06:17:50;;;;;;;28.07;13.90;;;10.90;61.20;;;;;;5101328;28;20462;-88
2022/11/15 06:20:36;;;;;;;44.83;13.90;;;10.70;62.00;;;;;;5077335;28;20447;-88
2022/11/15 06:23:22;;;;;;;23.00;13.37;;;10.60;61.90;;;;;;5100147;28;21062;-90
2022/11/15 06:26:07;;;;;;;21.33;13.33;;;10.70;62.00;;;;;;5082473;28;20436;-90
2022/11/15 06:28:54;;;;;;;27.87;14.00;;;10.80;61.50;;;;;;5102508;28;20443;-90
2022/11/15 06:31:40;;;;;;;22.60;14.87;;;10.90;60.90;;;;;;5096484;28;20435;-87
2022/11/15 06:34:25;;;;;;;25.53;14.70;;;10.80;60.30;;;;;;5076331;28;20484;-87
2022/11/15 06:37:11;;;;;;;18.63;14.17;;;10.90;60.80;;;;;;5067180;28;20468;-89
2022/11/15 06:39:57;;;;;;;17.70;13.30;;;11.00;60.20;;;;;;5092939;28;20447;-87
2022/11/15 06:42:42;;;;;;;37.33;19.80;;;10.90;60.20;;;;;;5063769;28;20447;-90
2022/11/15 06:45:30;;;;;;;31.07;18.17;;;10.80;61.10;;;;;;5072393;28;20546;-89
2022/11/15 06:48:15;;;;;;;26.20;14.80;;;10.90;61.20;;;;;;5072906;28;20454;-92
2022/11/15 06:51:02;;;;;;;16.77;12.07;;;11.00;61.30;;;;;;5074021;28;20448;-90
2022/11/15 06:53:48;;;;;;;14.73;10.47;;;10.80;60.30;;;;;;5082601;28;20471;-91
2022/11/15 06:56:34;;;;;;;22.57;13.83;;;10.80;61.30;;;;;;5086925;28;20532;-91
2022/11/15 06:59:20;;;;;;;29.13;17.47;;;10.80;61.80;;;;;;5101915;28;20536;-90
2022/11/15 07:02:12;;;;;;;29.87;18.97;;;10.80;61.40;;;;;;5102767;28;20442;-90
2022/11/15 07:04:58;;;;;;;23.60;13.30;;;10.90;61.80;;;;;;5100506;28;20613;-88
2022/11/15 07:07:43;;;;;;;30.07;14.47;;;11.00;61.50;;;;;;5069476;28;20430;-87
2022/11/15 07:10:30;;;;;;;27.90;15.70;;;11.10;61.40;;;;;;5064718;28;21077;-89
2022/11/15 07:13:16;;;;;;;19.50;13.33;;;11.00;61.90;;;;;;5070871;28;20473;-90
2022/11/15 07:16:02;;;;;;;48.07;15.40;;;11.10;61.90;;;;;;5083328;28;20452;-91
2022/11/15 07:18:50;;;;;;;26.00;13.60;;;11.20;61.40;;;;;;5100353;28;20454;-90
2022/11/15 07:21:35;;;;;;;17.13;12.73;;;11.00;61.70;;;;;;5073293;28;20930;-89
2022/11/15 07:24:21;;;;;;;19.10;12.37;;;11.20;61.60;;;;;;5073180;28;20477;-89
2022/11/15 07:27:07;;;;;;;36.30;15.00;;;11.10;61.20;;;;;;5098392;28;20531;-91
2022/11/15 07:29:52;;;;;;;26.17;14.90;;;11.10;61.30;;;;;;5102547;28;20446;-90
2022/11/15 07:32:38;;;;;;;33.73;19.27;;;11.00;62.00;;;;;;5096124;28;20595;-88
2022/11/15 07:35:25;;;;;;;24.37;16.90;;;10.60;62.70;;;;;;5058703;28;20486;-87
2022/11/15 07:38:11;;;;;;;37.43;19.60;;;10.50;63.50;;;;;;5076514;28;20831;-89
2022/11/15 07:40:58;;;;;;;31.37;19.97;;;10.80;63.00;;;;;;5079417;28;20430;-88
2022/11/15 07:43:44;;;;;;;35.07;20.30;;;10.90;61.80;;;;;;5080001;28;20435;-89
2022/11/15 07:46:30;;;;;;;23.07;16.20;;;10.80;62.60;;;;;;5096618;28;20435;-88
2022/11/15 07:49:15;;;;;;;26.80;16.73;;;10.70;62.50;;;;;;5068793;28;20439;-90
2022/11/15 07:52:02;;;;;;;37.23;17.30;;;10.80;62.10;;;;;;5079706;28;20843;-89
2022/11/15 07:54:48;;;;;;;49.77;17.00;;;10.90;62.50;;;;;;5082105;28;21024;-89
2022/11/15 07:57:33;;;;;;;25.43;15.50;;;10.90;62.50;;;;;;5083080;28;20877;-89
2022/11/15 08:00:19;;;;;;;24.93;15.17;;;11.00;62.30;;;;;;5092543;28;20438;-91
2022/11/15 08:03:07;;;;;;;67.37;21.10;;;11.20;61.60;;;;;;5107327;28;20471;-88
2022/11/15 08:05:52;;;;;;;28.70;16.47;;;11.10;61.40;;;;;;5084242;28;20451;-90
2022/11/15 08:08:39;;;;;;;289.63;32.47;;;11.20;61.40;;;;;;5080601;28;20515;-89
2022/11/15 08:11:25;;;;;;;37.63;16.77;;;11.30;61.20;;;;;;5097356;28;20439;-88
2022/11/15 08:14:10;;;;;;;44.67;19.60;;;11.00;61.90;;;;;;5099750;28;21008;-90
2022/11/15 08:16:56;;;;;;;66.77;22.73;;;10.90;63.00;;;;;;5079042;28;20502;-87
2022/11/15 08:19:41;;;;;;;107.70;24.87;;;11.10;62.80;;;;;;5087335;28;20451;-89
2022/11/15 08:22:27;;;;;;;218.70;26.37;;;11.00;62.90;;;;;;5078992;28;20817;-89
2022/11/15 08:25:14;;;;;;;35.60;16.80;;;11.10;62.80;;;;;;5070845;28;20475;-89
2022/11/15 08:28:03;;;;;;;27.00;16.63;;;11.30;62.50;;;;;;5070140;28;20435;-87
2022/11/15 08:30:48;;;;;;;56.07;21.53;;;11.50;62.20;;;;;;5072648;28;22107;-90
2022/11/15 08:33:36;;;;;;;53.93;24.27;;;11.40;61.90;;;;;;5068372;28;20580;-87
2022/11/15 08:36:21;;;;;;;51.77;20.83;;;11.10;63.10;;;;;;5083420;28;21146;-89
2022/11/15 08:39:09;;;;;;;77.97;24.60;;;11.20;63.20;;;;;;5082349;28;20486;-89
2022/11/15 08:41:56;;;;;;;42.47;18.40;;;11.30;62.80;;;;;;5088647;28;20496;-87
2022/11/15 08:44:42;;;;;;;68.67;15.87;;;11.20;63.20;;;;;;5071066;28;20924;-88
2022/11/15 08:47:28;;;;;;;39.77;16.23;;;10.90;64.10;;;;;;5079789;28;20481;-89
2022/11/15 08:50:14;;;;;;;29.97;12.90;;;10.60;65.00;;;;;;5086859;28;20504;-90
2022/11/15 08:53:06;;;;;;;20.70;13.10;;;10.30;66.10;;;;;;5080649;28;20879;-89
2022/11/15 08:55:52;;;;;;;31.20;17.93;;;10.70;65.70;;;;;;5086462;28;20458;-91
2022/11/15 08:58:39;;;;;;;58.37;17.83;;;10.90;64.80;;;;;;5105801;28;20463;-89
2022/11/15 09:01:24;;;;;;;89.60;21.13;;;11.10;64.70;;;;;;5085208;28;20447;-89
2022/11/15 09:04:10;;;;;;;33.23;15.93;;;11.40;64.10;;;;;;5073080;28;20982;-89
2022/11/15 09:06:56;;;;;;;114.13;17.80;;;11.60;63.20;;;;;;5101325;28;20435;-92
2022/11/15 09:09:41;;;;;;;36.07;15.43;;;11.60;62.50;;;;;;5080799;28;20444;-87
2022/11/15 09:12:27;;;;;;;33.93;17.53;;;11.60;62.50;;;;;;5081732;28;20497;-90
2022/11/15 09:15:15;;;;;;;39.20;25.73;;;11.50;62.70;;;;;;5062580;28;20477;-90
2022/11/15 09:18:00;;;;;;;20.70;12.30;;;11.00;64.30;;;;;;5068714;28;20466;-89
2022/11/15 09:20:46;;;;;;;25.50;13.20;;;11.10;64.60;;;;;;5085852;28;20509;-90
2022/11/15 09:23:32;;;;;;;23.37;13.47;;;11.40;63.80;;;;;;5081847;28;20436;-90
2022/11/15 09:26:18;;;;;;;21.47;14.87;;;11.60;63.40;;;;;;5064036;28;20898;-90
2022/11/15 09:29:03;;;;;;;31.20;20.10;;;11.80;62.90;;;;;;5092846;28;21076;-90
2022/11/15 09:31:52;;;;;;;26.40;19.60;;;11.70;62.90;;;;;;5066859;28;20450;-89
2022/11/15 09:34:38;;;;;;;25.80;19.10;;;11.70;63.50;;;;;;5083925;28;21278;-88
2022/11/15 09:37:24;;;;;;;32.03;22.40;;;11.80;64.10;;;;;;5080465;28;20543;-89
2022/11/15 09:40:12;;;;;;;42.70;23.47;;;12.00;62.80;;;;;;5082618;28;20452;-90
2022/11/15 09:43:27;;;;;;;36.27;20.10;;;11.90;63.10;;;;;;5079657;28;20889;-89
2022/11/15 09:46:21;;;;;;;30.80;18.00;;;12.10;62.80;;;;;;5101933;28;20439;-88
2022/11/15 09:49:15;;;;;;;30.13;16.27;;;12.20;62.80;;;;;;5102327;28;20451;-90
2022/11/15 09:52:08;;;;;;;22.57;13.80;;;12.30;62.60;;;;;;5064226;28;20549;-89
2022/11/15 09:54:37;;;;;;;18.10;12.40;;;12.50;62.50;;;;;;5067510;28;20483;-91
2022/11/15 09:57:10;;;;;;;21.20;13.10;;;12.60;62.40;;;;;;5059914;28;20551;-91
2022/11/15 09:59:50;;;;;;;20.27;12.60;;;12.70;62.10;;;;;;5099436;28;20557;-88
2022/11/15 10:02:31;;;;;;;20.40;12.20;;;12.80;62.40;;;;;;5067609;28;20470;-90
2022/11/15 10:05:01;;;;;;;21.33;10.83;;;12.90;62.10;;;;;;5049675;28;20466;-89
2022/11/15 10:07:32;;;;;;;13.50;10.60;;;12.90;61.70;;;;;;5097250;28;20463;-89
2022/11/15 10:10:05;;;;;;;10.77;9.63;;;12.90;61.60;;;;;;5098961;28;21291;-89
2022/11/15 10:12:32;;;;;;;10.67;8.67;;;12.80;62.00;;;;;;5098834;28;20539;-89
2022/11/15 10:15:03;;;;;;;16.80;11.53;;;12.60;63.10;;;;;;5078630;28;20459;-89
2022/11/15 10:18:09;;;;;;;16.60;13.40;;;12.50;63.80;;;;;;5096728;28;20487;-87
2022/11/15 10:20:46;;;;;;;14.80;10.87;;;12.70;63.50;;;;;;5013305;28;20490;-90
2022/11/15 10:23:17;;;;;;;16.17;11.27;;;12.70;63.40;;;;;;4995894;28;20463;-88
2022/11/15 10:25:44;;;;;;;16.20;10.93;;;12.90;63.10;;;;;;5045438;28;20463;-85
2022/11/15 10:28:16;;;;;;;14.63;10.00;;;13.10;63.00;;;;;;5067614;28;20447;-86
2022/11/15 10:30:45;;;;;;;13.87;8.40;;;13.20;62.60;;;;;;5066943;28;20526;-87
2022/11/15 10:33:25;;;;;;;13.70;9.10;;;13.30;61.70;;;;;;5081464;28;20501;-88
2022/11/15 10:36:17;;;;;;;49.40;27.53;;;13.20;62.20;;;;;;5071621;28;20501;-86
2022/11/15 10:38:56;;;;;;;17.83;10.40;;;12.90;63.10;;;;;;5083491;28;20459;-87
2022/11/15 10:41:31;;;;;;;13.57;10.03;;;12.90;63.40;;;;;;5048395;28;20542;-88
2022/11/15 10:44:29;;;;;;;13.37;8.53;;;12.90;63.50;;;;;;5062989;28;20629;-89
2022/11/15 10:47:35;;;;;;;12.70;9.47;;;13.10;63.10;;;;;;5097699;28;21075;-87
2022/11/15 10:50:07;;;;;;;16.50;11.87;;;13.30;62.70;;;;;;5096579;28;20501;-86
2022/11/15 10:52:44;;;;;;;25.67;16.60;;;13.40;62.40;;;;;;5100328;28;20451;-86
2022/11/15 10:55:25;;;;;;;15.73;10.70;;;13.50;62.40;;;;;;5097361;28;20461;-87
2022/11/15 10:57:54;;;;;;;16.57;13.27;;;13.50;62.50;;;;;;5084043;28;20901;-88
2022/11/15 11:00:30;;;;;;;21.37;17.40;;;13.40;63.10;;;;;;5099324;28;20491;-86
2022/11/15 11:03:00;;;;;;;21.57;15.97;;;13.30;63.50;;;;;;5059953;28;20988;-87
2022/11/15 11:05:31;;;;;;;13.93;11.37;;;13.40;63.10;;;;;;5064811;28;21061;-87
2022/11/15 11:08:02;;;;;;;12.27;9.00;;;13.50;62.80;;;;;;5085674;28;20451;-88
2022/11/15 11:10:30;;;;;;;11.13;8.50;;;13.70;62.50;;;;;;5083009;28;20450;-89
2022/11/15 11:13:12;;;;;;;11.97;8.67;;;13.80;62.30;;;;;;5099603;28;20529;-88
2022/11/15 11:15:45;;;;;;;14.30;9.60;;;13.50;61.60;;;;;;5083080;28;20494;-87
2022/11/15 11:18:20;;;;;;;13.40;10.53;;;13.40;62.80;;;;;;5095115;28;20504;-87
2022/11/15 11:20:54;;;;;;;18.50;12.40;;;13.80;62.40;;;;;;5062047;28;20492;-88
2022/11/15 11:23:35;;;;;;;14.73;12.00;;;14.10;62.20;;;;;;5078153;28;20993;-88
2022/11/15 11:26:12;;;;;;;13.07;9.67;;;14.30;61.90;;;;;;5093541;28;20478;-87
2022/11/15 11:28:47;;;;;;;16.73;10.57;;;14.40;63.40;;;;;;5079381;28;20535;-87
2022/11/15 11:31:25;;;;;;;23.33;13.70;;;14.50;62.70;;;;;;5050975;28;20866;-85
2022/11/15 11:34:03;;;;;;;26.77;15.20;;;14.40;61.80;;;;;;5066850;28;20467;-88
2022/11/15 11:36:40;;;;;;;20.60;12.00;;;14.30;61.80;;;;;;5074658;28;20451;-88
2022/11/15 11:39:22;;;;;;;18.57;11.87;;;14.20;61.60;;;;;;5075319;28;20467;-86
2022/11/15 11:42:03;;;;;;;16.00;10.03;;;14.20;61.90;;;;;;5076760;28;20450;-87
2022/11/15 11:44:36;;;;;;;20.17;15.77;;;14.30;61.90;;;;;;5096843;28;20547;-87
2022/11/15 11:47:07;;;;;;;19.57;12.77;;;14.20;62.00;;;;;;5079988;28;20554;-87
2022/11/15 11:49:42;;;;;;;21.20;11.97;;;14.20;62.00;;;;;;5080107;28;21006;-87
2022/11/15 11:52:13;;;;;;;15.10;10.47;;;14.30;62.00;;;;;;5098204;28;20546;-86
2022/11/15 11:54:48;;;;;;;13.00;9.20;;;14.30;61.90;;;;;;5061644;28;21097;-87
2022/11/15 11:57:23;;;;;;;17.23;11.33;;;14.40;61.20;;;;;;5071219;28;21350;-85
2022/11/15 11:59:56;;;;;;;18.00;11.00;;;14.40;61.30;;;;;;5081494;28;21220;-86
2022/11/15 12:02:30;;;;;;;17.23;11.07;;;14.40;61.30;;;;;;5063891;28;20452;-88
2022/11/15 12:05:05;;;;;;;18.87;13.90;;;14.60;62.30;;;;;;5066566;28;20493;-87
2022/11/15 12:07:35;;;;;;;15.63;11.90;;;14.70;61.20;;;;;;5099083;28;20443;-86
2022/11/15 12:10:14;;;;;;;15.63;10.03;;;14.80;60.90;;;;;;5078611;28;20445;-85
2022/11/15 12:12:50;;;;;;;17.40;8.60;;;14.90;61.00;;;;;;5098149;28;20456;-88
2022/11/15 12:15:21;;;;;;;11.83;9.00;;;15.00;60.50;;;;;;5087414;28;20505;-87
2022/11/15 12:17:49;;;;;;;10.50;8.50;;;15.20;60.00;;;;;;5068455;28;20463;-87
2022/11/15 12:20:18;;;;;;;13.43;9.37;;;15.20;59.70;;;;;;5093480;27;20519;-88
2022/11/15 12:22:52;;;;;;;12.47;8.97;;;15.20;59.70;;;;;;5096519;28;20455;-88
2022/11/15 12:25:23;;;;;;;18.73;9.63;;;15.10;59.80;;;;;;5052246;28;20477;-88
2022/11/15 12:27:55;;;;;;;11.53;10.07;;;15.20;60.20;;;;;;5083710;28;20448;-87
2022/11/15 12:30:23;;;;;;;15.80;9.50;;;15.20;60.10;;;;;;5081926;28;20500;-87
2022/11/15 12:32:54;;;;;;;18.10;11.73;;;15.20;59.90;;;;;;5078828;28;20457;-87
2022/11/15 12:35:30;;;;;;;19.10;13.17;;;15.20;60.60;;;;;;5061792;28;21058;-88
2022/11/15 12:37:58;;;;;;;15.90;9.73;;;15.20;60.40;;;;;;5065428;28;20471;-86
2022/11/15 12:40:38;;;;;;;12.30;9.50;;;15.20;60.80;;;;;;5093543;28;20913;-89
2022/11/15 12:43:41;;;;;;;13.70;8.93;;;15.20;60.80;;;;;;5065340;28;20475;-89
2022/11/15 12:46:14;;;;;;;11.07;8.60;;;15.20;60.00;;;;;;5064554;28;20526;-88
2022/11/15 12:49:00;;;;;;;12.67;8.17;;;15.30;59.90;;;;;;5080737;28;20825;-88
2022/11/15 12:52:05;;;;;;;15.20;9.87;;;15.30;59.90;;;;;;5073702;28;20475;-90
2022/11/15 12:54:58;;;;;;;19.03;9.90;;;15.50;59.80;;;;;;5075297;28;20520;-88
2022/11/15 12:57:45;;;;;;;17.40;10.27;;;15.40;59.90;;;;;;5076435;28;20533;-89
2022/11/15 13:00:46;;;;;;;17.03;9.33;;;15.40;60.20;;;;;;5061114;28;20447;-87
2022/11/15 13:03:24;;;;;;;15.90;9.80;;;15.40;60.50;;;;;;5097794;28;20534;-87
2022/11/15 13:06:04;;;;;;;13.97;8.73;;;15.30;60.50;;;;;;5087120;28;20470;-85
2022/11/15 13:08:47;;;;;;;18.10;9.43;;;15.40;60.70;;;;;;5096888;28;20447;-87
2022/11/15 13:12:01;;;;;;;12.27;10.97;;;15.40;60.80;;;;;;5095502;28;20524;-87
2022/11/15 13:14:44;;;;;;;10.80;9.53;;;15.40;61.00;;;;;;5067383;28;20507;-88
2022/11/15 13:17:34;;;;;;;15.00;11.60;;;15.50;60.80;;;;;;5049873;28;20452;-86
2022/11/15 13:20:17;;;;;;;17.80;10.00;;;15.70;60.60;;;;;;5084454;28;20538;-87
2022/11/15 13:22:54;;;;;;;9.60;8.37;;;15.70;60.20;;;;;;5077166;28;20452;-86
2022/11/15 13:25:58;;;;;;;11.47;8.40;;;15.80;60.30;;;;;;5096204;28;20467;-87
2022/11/15 13:28:33;;;;;;;9.97;7.73;;;15.90;60.30;;;;;;5093930;28;21050;-85
2022/11/15 13:31:04;;;;;;;13.93;9.70;;;16.10;60.20;;;;;;5077965;28;20541;-87
2022/11/15 13:33:34;;;;;;;14.77;8.83;;;16.20;59.60;;;;;;5077390;28;20462;-86
2022/11/15 13:36:04;;;;;;;13.83;9.10;;;16.20;59.40;;;;;;5089687;28;20934;-87
2022/11/15 13:38:34;;;;;;;14.97;11.73;;;16.20;59.40;;;;;;5052125;28;20474;-87
2022/11/15 13:41:14;;;;;;;13.67;9.40;;;16.00;59.60;;;;;;5082090;28;21057;-87
2022/11/15 13:43:42;;;;;;;17.23;11.20;;;15.90;59.80;;;;;;5094339;28;20435;-87
2022/11/15 13:46:14;;;;;;;14.50;9.27;;;15.90;60.20;;;;;;5083642;28;20512;-87
2022/11/15 13:48:42;;;;;;;10.63;8.50;;;16.00;60.30;;;;;;5099029;28;20443;-86
2022/11/15 13:51:16;;;;;;;11.97;8.07;;;16.10;59.90;;;;;;5079276;28;20519;-86
2022/11/15 13:53:47;;;;;;;13.30;8.67;;;16.10;59.80;;;;;;5085921;28;20446;-87
2022/11/15 13:56:15;;;;;;;12.17;7.87;;;16.20;59.70;;;;;;5094380;28;20943;-87
2022/11/15 13:58:43;;;;;;;17.13;8.67;;;16.30;59.70;;;;;;5061683;28;21091;-89
2022/11/15 14:01:19;;;;;;;12.53;8.83;;;16.30;59.60;;;;;;5095587;28;20531;-87
2022/11/15 14:03:57;;;;;;;16.70;10.90;;;16.40;59.50;;;;;;5063428;28;20450;-87
2022/11/15 14:06:27;;;;;;;13.73;10.13;;;16.30;59.00;;;;;;5060200;28;20447;-86
2022/11/15 14:09:03;;;;;;;18.70;11.67;;;16.20;59.30;;;;;;5093404;28;20440;-87